x

Tateyama Ab (47688) Weather Station

5:25pm - Mon 22nd Dec 2014 All times are JST. 9 hours from GMT.

  • Wind
    20mph, 31mph gusts
  • Air Temp 48°f
  • Sea Pressure 1010mb
  • Tateyama Ab
  • Tateyama Ab

More Historic Weather Station data

Upgrade to MSW Pro to gain access to the past 30 days of data for over 8000 Wavebouys and Weather Stations around the globe.

Join Pro

Comparision Forecast

View Surf forecast
   
Mon 12/22 5:25pm 20 31 mph 1010mb 48f
2:16pm 23 36 mph 1009mb 50f
8:20am 22 33 mph 1011mb 48f
7:19am 21 32 mph 1009mb 46f
Sun 12/21 11:23pm 30 52 mph 1008mb 52f
10:16pm 25 37 mph 1008mb 52f
2:45pm 18 30 mph 1007mb 57f
Sat 12/20 11:15pm 16 31 mph 1004mb 57f
10:15pm 18 30 mph 1002mb 59f
9:26pm 21 44 mph 1002mb 61f
9:21pm 28 52 mph 1003mb 61f
9:15pm 27 52 mph 1002mb 63f
9:10pm 23 41 mph 1002mb 64f
9:05pm 23 62 mph 1003mb 64f
8:25pm 23 45 mph 1003mb 63f
8:12pm 24 45 mph 1003mb 63f
8:03pm 24 44 mph 1003mb 63f
7:31pm 20 43 mph 1004mb 63f
7:25pm 21 46 mph 1005mb 63f
7:20pm 17 46 mph 1005mb 61f
7:17pm 15 46 mph 1005mb 63f
7:07pm 22 48 mph 1005mb 63f
6:47pm 14 33 mph 1005mb 61f
6:18pm 17 38 mph 1006mb 61f
5:46pm 15 39 mph 1007mb 61f
5:12pm 15 37 mph 1008mb 61f
3:50pm 8 23 mph 1011mb 57f
1:30am 12 23 mph 1027mb 50f